Decoded Metar for GQPP (NOUADHIBOU in MAURITANIA) (IATA:NDB) | Meteo·Mobile Aviation Weather
aviador You're here:

GQPP Decoded Metar

NOUADHIBOU in MAURITANIA
Report Time2018-08-22 05:00:00
UTC Time2018-08-22 05:38:25
Flight Rules vfr VFR
Wind360° at 14 kt
W.Decomp.*RWY 02: 13.6 kt HW 3.4 kt LCW
Visibility8000 m
Phenomena:N/A
Clouds:Scattered 006 Hf
Expected CloudBase > 800 ft AGL from Temp-Dew spread
CeilingNone
Temp21°C (ISA +6)
Dew Point19°C (88% RH)
AAT19.2°C
QNH1011 hPa
Density Alt1,070 ft
Elevation10 ft
Report Wrong Elevation
Raw Report
METAR GQPP 220500Z 36014KT 8000 SCT006 21/19 Q1011 NOSIG=

Extra information for GQPP:More info

Metar Taf Metar & Taf Last 4 Metars F.Rules Stats Wind Profile Meteogram Temp Stats Airport Information Weather charts Add Link Nearby VenuesMetar ALERT Operation Metar Decoded Social comments